Time;durP1;ratioP1;P1;durP2;ratioP2;P2;SDS_P1;SDS_P2;PMS_P1;PMS_P2;Temp;Humidity;BMP_temperature;BMP_pressure;BME280_temperature;BME280_humidity;BME280_pressure;Samples;Min_cycle;Max_cycle;Signal;HPM_P1;HPM_P2
2023/12/28 00:01:07;;;;;;;41.63;19.47;;;0.30;99.90;;;;;;8236440;28;20257;-63
2023/12/28 00:05:08;;;;;;;32.63;18.20;;;0.50;99.90;;;;;;8238374;28;20204;-63
2023/12/28 00:09:09;;;;;;;35.20;18.83;;;0.50;99.90;;;;;;8241649;28;20287;-63
2023/12/28 00:13:10;;;;;;;29.30;17.90;;;0.60;99.90;;;;;;8240342;28;20272;-62
2023/12/28 00:17:11;;;;;;;34.03;19.37;;;0.60;99.90;;;;;;8242988;28;20375;-62
2023/12/28 00:21:12;;;;;;;33.33;20.07;;;0.70;99.90;;;;;;8241219;28;20195;-64
2023/12/28 00:25:13;;;;;;;31.70;19.47;;;0.70;99.90;;;;;;8241269;28;20192;-63
2023/12/28 00:29:14;;;;;;;31.13;21.03;;;0.70;99.90;;;;;;8246160;28;20180;-64
2023/12/28 00:33:16;;;;;;;32.40;19.87;;;0.70;99.90;;;;;;8245678;28;20196;-63
2023/12/28 00:37:16;;;;;;;31.70;19.27;;;0.60;99.90;;;;;;8242413;28;20196;-61
2023/12/28 00:41:17;;;;;;;31.93;18.83;;;0.60;99.90;;;;;;8242447;28;20274;-62
2023/12/28 00:45:18;;;;;;;29.63;17.77;;;0.40;99.90;;;;;;8242703;28;20192;-63
2023/12/28 00:49:19;;;;;;;27.60;17.53;;;0.30;99.90;;;;;;8234922;28;20197;-63
2023/12/28 00:53:20;;;;;;;32.00;19.67;;;0.10;99.90;;;;;;8242239;28;20214;-63
2023/12/28 00:57:20;;;;;;;28.33;17.17;;;0.00;99.90;;;;;;8240550;28;20199;-63
2023/12/28 01:01:21;;;;;;;30.90;17.90;;;-0.10;99.90;;;;;;8235246;28;20183;-63
2023/12/28 01:05:25;;;;;;;28.70;17.43;;;-0.10;99.90;;;;;;8229265;28;20215;-63
2023/12/28 01:09:26;;;;;;;28.40;17.57;;;-0.20;99.90;;;;;;8235956;28;20184;-63
2023/12/28 01:13:28;;;;;;;29.87;16.43;;;-0.30;99.90;;;;;;8235154;28;20184;-63
2023/12/28 01:17:29;;;;;;;42.10;21.07;;;-0.40;99.90;;;;;;8230026;28;20188;-65
2023/12/28 01:21:29;;;;;;;52.20;25.43;;;-0.40;99.90;;;;;;8240177;28;20188;-64
2023/12/28 01:25:30;;;;;;;46.43;23.50;;;-0.40;99.90;;;;;;8233666;28;20215;-64
2023/12/28 01:29:32;;;;;;;52.23;26.20;;;-0.40;99.90;;;;;;8227177;28;20227;-64
2023/12/28 01:33:33;;;;;;;43.57;23.97;;;-0.40;99.90;;;;;;8224552;28;20189;-64
2023/12/28 01:37:34;;;;;;;38.60;21.63;;;-0.40;99.90;;;;;;8226058;28;20554;-63
2023/12/28 01:41:35;;;;;;;37.57;19.30;;;-0.50;99.90;;;;;;8234562;28;20458;-64
2023/12/28 01:45:35;;;;;;;30.40;17.17;;;-0.50;99.90;;;;;;8223923;28;20215;-63
2023/12/28 01:49:37;;;;;;;27.47;16.13;;;-0.50;99.90;;;;;;8234785;28;20180;-63
2023/12/28 01:53:38;;;;;;;27.53;15.83;;;-0.60;99.90;;;;;;8231015;28;20270;-64
2023/12/28 01:57:39;;;;;;;49.57;25.83;;;-0.60;99.90;;;;;;8237420;28;20184;-64
2023/12/28 02:01:41;;;;;;;42.47;23.73;;;-0.50;99.90;;;;;;8245108;28;20350;-64
2023/12/28 02:05:42;;;;;;;32.80;18.60;;;-0.50;99.90;;;;;;8230704;28;20250;-64
2023/12/28 02:09:43;;;;;;;25.77;14.43;;;-0.50;99.90;;;;;;8248955;28;20279;-63
2023/12/28 02:13:44;;;;;;;23.97;13.13;;;-0.60;99.90;;;;;;8232027;28;20193;-64
2023/12/28 02:17:58;;;;;;;43.03;22.20;;;-0.60;99.90;;;;;;8235742;28;20197;-62
2023/12/28 02:22:00;;;;;;;26.50;15.87;;;-0.60;99.90;;;;;;8231550;28;20202;-62
2023/12/28 02:26:01;;;;;;;22.20;11.37;;;-0.50;99.90;;;;;;8234461;28;20223;-63
2023/12/28 02:30:02;;;;;;;29.90;15.67;;;-0.40;99.90;;;;;;8229349;28;20231;-63
2023/12/28 02:34:16;;;;;;;17.37;10.03;;;-0.30;99.90;;;;;;8232281;28;20203;-63
2023/12/28 02:38:18;;;;;;;34.70;16.60;;;-0.20;99.90;;;;;;8230482;28;20298;-63
2023/12/28 02:42:19;;;;;;;37.87;20.13;;;-0.20;99.90;;;;;;8230828;28;20215;-63
2023/12/28 02:46:20;;;;;;;39.37;23.30;;;-0.10;99.90;;;;;;8225598;28;20204;-63
2023/12/28 02:50:20;;;;;;;20.40;12.57;;;-0.10;99.90;;;;;;8230741;28;20185;-64
2023/12/28 02:54:21;;;;;;;11.07;5.63;;;0.10;99.90;;;;;;8228956;28;20190;-64
2023/12/28 02:58:22;;;;;;;32.33;18.57;;;0.50;99.90;;;;;;8232700;28;20195;-63
2023/12/28 03:02:23;;;;;;;15.83;9.87;;;0.60;99.90;;;;;;8227044;28;20192;-64
2023/12/28 03:06:24;;;;;;;6.20;3.67;;;0.60;99.90;;;;;;8234148;28;20216;-61
2023/12/28 03:10:25;;;;;;;4.00;2.17;;;0.90;99.90;;;;;;8244457;28;20187;-62
2023/12/28 03:14:26;;;;;;;3.20;2.23;;;1.40;99.90;;;;;;8242830;28;20278;-64
2023/12/28 03:18:26;;;;;;;3.37;2.37;;;1.70;99.90;;;;;;8248452;28;20187;-63
2023/12/28 03:22:27;;;;;;;3.57;2.50;;;1.90;99.90;;;;;;8243176;28;20229;-62
2023/12/28 03:26:28;;;;;;;3.40;2.20;;;2.10;99.90;;;;;;8247094;28;20211;-63
2023/12/28 03:30:28;;;;;;;9.80;5.70;;;2.30;99.90;;;;;;8238197;28;20184;-63
2023/12/28 03:34:33;;;;;;;9.37;5.80;;;2.50;99.90;;;;;;8244165;28;20254;-63
2023/12/28 03:38:34;;;;;;;20.77;11.37;;;2.50;99.90;;;;;;8243491;28;20198;-63
2023/12/28 03:42:38;;;;;;;14.40;8.03;;;2.50;99.90;;;;;;8242021;28;20192;-63
2023/12/28 03:46:39;;;;;;;35.30;20.80;;;2.50;99.90;;;;;;8244950;28;20196;-63
2023/12/28 03:50:39;;;;;;;31.80;16.67;;;2.20;99.90;;;;;;8247546;28;20181;-63
2023/12/28 03:54:40;;;;;;;29.97;14.07;;;2.00;99.90;;;;;;8245288;28;20182;-64
2023/12/28 03:58:41;;;;;;;19.63;10.57;;;1.90;33.60;;;;;;8236807;28;20187;-64
2023/12/28 04:02:42;;;;;;;13.20;7.80;;;2.00;39.30;;;;;;8249752;28;20196;-64
2023/12/28 04:06:43;;;;;;;3.00;2.13;;;2.00;11.70;;;;;;8237431;28;20269;-64
2023/12/28 04:10:44;;;;;;;2.67;1.40;;;2.40;1.00;;;;;;8234392;28;20179;-64
2023/12/28 04:14:45;;;;;;;2.93;1.60;;;3.10;99.90;;;;;;8232618;28;20219;-64
2023/12/28 04:18:46;;;;;;;2.33;1.57;;;3.70;99.90;;;;;;8231119;28;20196;-64
2023/12/28 04:22:47;;;;;;;2.53;1.43;;;3.90;99.90;;;;;;8237526;28;20229;-63
2023/12/28 04:26:48;;;;;;;1.90;1.50;;;4.00;92.20;;;;;;8231590;28;20588;-63
2023/12/28 04:30:48;;;;;;;3.40;1.60;;;4.20;78.10;;;;;;8235143;28;20188;-63
2023/12/28 04:34:49;;;;;;;3.13;1.70;;;4.40;18.70;;;;;;8238019;28;20673;-63
2023/12/28 04:38:50;;;;;;;3.93;1.50;;;4.70;1.00;;;;;;8237983;28;20274;-63
2023/12/28 04:42:53;;;;;;;1.90;1.50;;;4.90;1.00;;;;;;8235303;28;20187;-63
2023/12/28 04:46:54;;;;;;;3.07;1.70;;;5.20;1.00;;;;;;8231250;28;20219;-64
2023/12/28 04:50:55;;;;;;;3.57;2.07;;;5.50;1.00;;;;;;8230926;28;20178;-62
2023/12/28 04:54:55;;;;;;;2.90;1.80;;;5.80;1.00;;;;;;8235512;28;20574;-63
2023/12/28 04:58:56;;;;;;;3.10;1.57;;;5.90;1.00;;;;;;8231683;28;20184;-63
2023/12/28 05:02:57;;;;;;;3.33;1.90;;;6.10;1.00;;;;;;8232555;28;20194;-63
2023/12/28 05:06:57;;;;;;;3.43;1.87;;;6.20;1.00;;;;;;8238834;28;20207;-64
2023/12/28 05:10:58;;;;;;;1.97;1.30;;;6.40;1.00;;;;;;8234760;28;20215;-62
2023/12/28 05:14:59;;;;;;;3.67;1.70;;;6.40;1.00;;;;;;8236107;28;20534;-62
2023/12/28 05:18:59;;;;;;;3.37;2.00;;;6.50;1.00;;;;;;8244485;28;20188;-63
2023/12/28 05:23:00;;;;;;;3.23;1.63;;;6.60;1.00;;;;;;8238742;28;20223;-64
2023/12/28 05:27:00;;;;;;;2.80;1.70;;;6.60;1.00;;;;;;8233765;28;20219;-64
2023/12/28 05:31:01;;;;;;;2.63;1.80;;;6.80;1.00;;;;;;8231815;28;20200;-63
2023/12/28 05:35:03;;;;;;;2.67;1.80;;;7.10;1.00;;;;;;8235021;28;20686;-64
2023/12/28 05:39:04;;;;;;;2.37;1.57;;;7.30;1.00;;;;;;8232326;28;20302;-63
2023/12/28 05:43:05;;;;;;;3.53;1.50;;;7.40;1.00;;;;;;8234574;28;20195;-63
2023/12/28 05:47:06;;;;;;;2.23;1.37;;;7.30;1.00;;;;;;8232851;28;20260;-63
2023/12/28 05:51:07;;;;;;;1.70;1.40;;;7.40;1.00;;;;;;8233749;28;20192;-64
2023/12/28 05:55:08;;;;;;;3.00;1.83;;;7.40;1.00;;;;;;8230901;28;20191;-64
2023/12/28 05:59:09;;;;;;;3.20;1.77;;;7.60;1.00;;;;;;8227760;28;20203;-63
2023/12/28 06:03:09;;;;;;;3.10;1.43;;;7.70;1.00;;;;;;8229416;28;20203;-64
2023/12/28 06:07:10;;;;;;;2.77;1.70;;;7.80;1.00;;;;;;8232192;28;20215;-64
2023/12/28 06:11:11;;;;;;;2.07;1.50;;;7.90;1.00;;;;;;8226443;28;20512;-64
2023/12/28 06:15:11;;;;;;;2.00;1.60;;;8.00;1.00;;;;;;8232615;28;20192;-64
2023/12/28 06:19:12;;;;;;;2.07;1.57;;;8.00;1.00;;;;;;8232935;28;20259;-64
2023/12/28 06:23:13;;;;;;;2.87;1.60;;;8.00;1.00;;;;;;8227919;28;20193;-64
2023/12/28 06:27:13;;;;;;;1.77;1.40;;;8.10;1.00;;;;;;8230831;28;20225;-64
2023/12/28 06:31:14;;;;;;;1.90;1.50;;;8.20;1.00;;;;;;8230414;28;20223;-64
2023/12/28 06:35:15;;;;;;;2.50;1.77;;;8.30;1.00;;;;;;8231262;28;20189;-63
2023/12/28 06:39:16;;;;;;;3.30;1.60;;;8.20;1.00;;;;;;8230589;28;20213;-64
2023/12/28 06:43:16;;;;;;;3.13;1.93;;;8.20;1.00;;;;;;8230308;28;20196;-64
2023/12/28 06:47:17;;;;;;;2.47;1.80;;;8.20;1.00;;;;;;8236363;28;20218;-65
2023/12/28 06:51:19;;;;;;;3.87;1.97;;;8.30;1.00;;;;;;8240349;28;20209;-65
2023/12/28 06:55:20;;;;;;;2.53;1.70;;;8.30;1.00;;;;;;8234714;28;20249;-65
2023/12/28 06:59:21;;;;;;;3.60;1.93;;;8.40;1.00;;;;;;8239614;28;20189;-64
2023/12/28 07:03:21;;;;;;;2.87;1.70;;;8.50;1.00;;;;;;8230843;28;20213;-65
2023/12/28 07:07:22;;;;;;;2.63;1.70;;;8.50;1.00;;;;;;8239345;28;20217;-64
2023/12/28 07:11:23;;;;;;;3.10;2.00;;;8.60;1.00;;;;;;8236383;28;20284;-65
2023/12/28 07:15:25;;;;;;;3.40;2.10;;;8.70;1.00;;;;;;8227861;28;20199;-63
2023/12/28 07:19:25;;;;;;;2.37;1.90;;;9.10;1.00;;;;;;8235716;28;20691;-64
2023/12/28 07:23:27;;;;;;;3.60;2.00;;;9.60;1.00;;;;;;8224905;28;20195;-64
2023/12/28 07:27:27;;;;;;;2.97;1.83;;;9.80;1.00;;;;;;8226256;28;20223;-64
2023/12/28 07:31:29;;;;;;;4.00;1.90;;;10.10;1.00;;;;;;8223512;28;20247;-66
2023/12/28 07:35:30;;;;;;;4.43;1.83;;;10.40;1.00;;;;;;8226989;28;20191;-65
2023/12/28 07:39:30;;;;;;;3.17;2.10;;;10.70;1.00;;;;;;8224231;28;20180;-64
2023/12/28 07:43:31;;;;;;;5.60;2.00;;;10.70;1.00;;;;;;8225489;28;20191;-64
2023/12/28 07:47:33;;;;;;;3.17;2.10;;;10.80;1.00;;;;;;8212736;28;20208;-63
2023/12/28 07:51:34;;;;;;;4.50;2.10;;;10.80;1.00;;;;;;8228894;28;20183;-63
2023/12/28 07:55:35;;;;;;;3.53;1.93;;;10.70;1.00;;;;;;8222118;28;20188;-64
2023/12/28 07:59:35;;;;;;;2.30;1.77;;;10.50;1.00;;;;;;8226107;28;20187;-64
2023/12/28 08:03:36;;;;;;;2.83;2.10;;;10.20;1.00;;;;;;8235220;28;20250;-64
2023/12/28 08:07:37;;;;;;;3.93;2.13;;;9.80;1.00;;;;;;8224801;28;20214;-64
2023/12/28 08:11:38;;;;;;;5.97;2.23;;;9.50;1.00;;;;;;8228179;28;20191;-64
2023/12/28 08:15:39;;;;;;;2.90;2.10;;;9.30;1.00;;;;;;8233307;28;20191;-63
2023/12/28 08:19:39;;;;;;;4.07;2.17;;;9.10;1.00;;;;;;8241836;28;20615;-66
2023/12/28 08:23:40;;;;;;;2.80;2.00;;;9.10;1.00;;;;;;8237680;28;20185;-65
2023/12/28 08:27:41;;;;;;;3.07;2.30;;;9.00;1.00;;;;;;8234616;28;20431;-64
2023/12/28 08:31:42;;;;;;;4.60;2.30;;;9.00;1.00;;;;;;8233406;28;20197;-64
2023/12/28 08:35:43;;;;;;;3.40;2.20;;;9.00;1.00;;;;;;8234500;28;20280;-67
2023/12/28 08:39:43;;;;;;;4.50;2.60;;;9.00;1.00;;;;;;8227364;28;20313;-66
2023/12/28 08:43:44;;;;;;;4.73;2.70;;;9.00;1.00;;;;;;8213083;28;20183;-65
2023/12/28 08:47:46;;;;;;;2.40;1.80;;;9.00;1.00;;;;;;8204951;28;20217;-65
2023/12/28 08:51:47;;;;;;;3.80;2.40;;;9.00;1.00;;;;;;8201995;28;20187;-66
2023/12/28 08:55:48;;;;;;;4.30;2.27;;;9.00;1.00;;;;;;8193496;28;20238;-65
2023/12/28 08:59:49;;;;;;;4.53;2.47;;;9.00;1.00;;;;;;8224413;28;20237;-63
2023/12/28 09:03:50;;;;;;;3.80;2.47;;;9.00;1.00;;;;;;8225172;28;20203;-62
2023/12/28 09:07:51;;;;;;;4.57;2.67;;;8.90;1.00;;;;;;8220980;28;20216;-64
2023/12/28 09:11:55;;;;;;;5.33;2.40;;;8.90;1.00;;;;;;8223834;28;20544;-64
2023/12/28 09:15:55;;;;;;;3.77;2.40;;;8.90;1.00;;;;;;8218622;28;20288;-63
2023/12/28 09:19:58;;;;;;;3.50;2.37;;;8.90;1.00;;;;;;8211194;28;20200;-64
2023/12/28 09:23:58;;;;;;;3.50;2.63;;;9.00;1.00;;;;;;8218501;28;20186;-64
2023/12/28 09:28:01;;;;;;;3.80;2.20;;;9.00;1.00;;;;;;8239813;28;20223;-64
2023/12/28 09:32:02;;;;;;;4.17;2.77;;;9.10;1.00;;;;;;8236945;28;20203;-65
2023/12/28 09:36:06;;;;;;;3.30;2.30;;;9.10;1.00;;;;;;8241068;28;20186;-63
2023/12/28 09:40:07;;;;;;;3.53;2.30;;;9.20;1.00;;;;;;8237747;28;20198;-64
2023/12/28 09:44:12;;;;;;;4.43;2.57;;;9.20;1.00;;;;;;8239446;28;20203;-64
2023/12/28 09:48:17;;;;;;;4.13;2.33;;;9.30;1.00;;;;;;8239755;28;20300;-64
2023/12/28 09:52:18;;;;;;;3.93;2.57;;;9.30;1.00;;;;;;8244164;28;20193;-65
2023/12/28 09:56:19;;;;;;;4.13;2.30;;;9.30;1.00;;;;;;8236853;28;20191;-65
2023/12/28 10:00:20;;;;;;;4.07;2.60;;;9.40;1.00;;;;;;8239531;28;20186;-64
2023/12/28 10:04:21;;;;;;;2.87;2.20;;;9.50;1.00;;;;;;8242311;28;20203;-64
2023/12/28 10:08:22;;;;;;;3.63;2.40;;;9.50;1.00;;;;;;8236691;28;20214;-65
2023/12/28 10:12:27;;;;;;;4.43;2.50;;;9.50;1.00;;;;;;8237628;28;20280;-64
2023/12/28 10:16:28;;;;;;;2.57;2.17;;;9.60;1.00;;;;;;8248345;28;20199;-64
2023/12/28 10:20:31;;;;;;;4.83;2.60;;;9.60;1.00;;;;;;8236106;28;20218;-63
2023/12/28 10:24:42;;;;;;;5.07;2.60;;;9.60;1.00;;;;;;8243202;28;20197;-65
2023/12/28 10:28:44;;;;;;;3.87;2.50;;;9.60;1.00;;;;;;8233998;28;20222;-64
2023/12/28 10:32:45;;;;;;;6.63;3.27;;;9.70;1.00;;;;;;8237998;28;20198;-63
2023/12/28 10:36:49;;;;;;;4.97;2.47;;;9.70;1.00;;;;;;8241298;28;20198;-64
2023/12/28 10:40:51;;;;;;;4.50;2.50;;;9.70;1.00;;;;;;8252394;28;20227;-63
2023/12/28 10:44:55;;;;;;;3.63;2.57;;;9.70;1.00;;;;;;8240613;28;20250;-64
2023/12/28 10:49:10;;;;;;;3.63;2.60;;;9.70;1.00;;;;;;8241842;28;20303;-65
2023/12/28 10:53:47;;;;;;;5.10;2.80;;;9.70;1.00;;;;;;8226914;28;20191;-64
2023/12/28 10:58:10;;;;;;;3.50;2.70;;;9.70;1.00;;;;;;8231320;28;20182;-64
2023/12/28 11:02:14;;;;;;;4.10;2.37;;;9.70;1.00;;;;;;8229036;28;20250;-65
2023/12/28 11:06:19;;;;;;;3.83;2.67;;;9.60;1.00;;;;;;8246875;28;20309;-64
2023/12/28 11:10:23;;;;;;;4.00;2.67;;;9.60;1.00;;;;;;8238617;28;20229;-64
2023/12/28 11:14:24;;;;;;;4.10;2.50;;;9.60;1.00;;;;;;8242366;28;20186;-65
2023/12/28 11:18:27;;;;;;;3.40;2.47;;;9.60;1.00;;;;;;8236113;28;20190;-63
2023/12/28 11:22:29;;;;;;;3.70;2.30;;;9.60;1.00;;;;;;8252755;28;20277;-63
2023/12/28 11:26:30;;;;;;;4.23;2.73;;;9.50;1.00;;;;;;8238739;28;20267;-64
2023/12/28 11:30:31;;;;;;;3.30;2.37;;;9.50;1.00;;;;;;8249250;28;20211;-63
2023/12/28 11:34:36;;;;;;;3.67;2.60;;;9.50;1.00;;;;;;8238332;28;20205;-63
2023/12/28 11:38:41;;;;;;;3.60;2.57;;;9.50;1.00;;;;;;8243329;28;20206;-63
2023/12/28 11:42:52;;;;;;;5.20;2.93;;;9.50;1.00;;;;;;8248810;28;20222;-62
2023/12/28 11:46:53;;;;;;;4.13;2.67;;;9.50;1.00;;;;;;8234193;28;20212;-62
2023/12/28 11:50:59;;;;;;;5.40;3.00;;;9.50;1.00;;;;;;8235150;28;20188;-63
2023/12/28 11:55:00;;;;;;;5.00;2.90;;;9.50;1.00;;;;;;8253060;28;20197;-63
2023/12/28 11:59:01;;;;;;;3.60;2.20;;;9.50;1.00;;;;;;8235548;28;20194;-63
2023/12/28 12:03:02;;;;;;;4.63;2.60;;;9.50;1.00;;;;;;8232868;28;20248;-65
2023/12/28 12:07:04;;;;;;;3.67;2.77;;;9.50;1.00;;;;;;8234372;28;20211;-64
2023/12/28 12:11:06;;;;;;;3.63;2.40;;;9.50;1.00;;;;;;8236489;28;20215;-64
2023/12/28 12:15:08;;;;;;;3.20;2.33;;;9.50;1.00;;;;;;8232627;28;20182;-63
2023/12/28 12:19:09;;;;;;;13.67;3.17;;;9.50;1.00;;;;;;8231400;28;20198;-64
2023/12/28 12:23:11;;;;;;;4.53;2.87;;;9.50;1.00;;;;;;8236722;28;20195;-64
2023/12/28 12:27:11;;;;;;;3.77;2.73;;;9.50;1.00;;;;;;8233559;28;20233;-67
2023/12/28 12:31:12;;;;;;;3.90;2.40;;;9.50;1.00;;;;;;8237856;28;20219;-64
2023/12/28 12:35:14;;;;;;;3.73;2.57;;;9.50;1.00;;;;;;8234281;28;20223;-64
2023/12/28 12:39:15;;;;;;;4.80;2.77;;;9.40;1.00;;;;;;8237397;28;20213;-63
2023/12/28 12:43:16;;;;;;;5.10;3.23;;;9.40;1.00;;;;;;8241473;28;20262;-63
2023/12/28 12:47:17;;;;;;;6.10;2.70;;;9.30;1.00;;;;;;8233250;28;20260;-65
2023/12/28 12:51:18;;;;;;;5.90;3.40;;;9.20;1.00;;;;;;8236285;28;20187;-65
2023/12/28 12:55:19;;;;;;;4.10;2.87;;;9.20;1.00;;;;;;8233334;28;20193;-64
2023/12/28 12:59:22;;;;;;;4.00;2.80;;;9.00;1.00;;;;;;8230227;28;20224;-64
2023/12/28 13:03:27;;;;;;;4.60;2.87;;;9.00;1.00;;;;;;8230650;28;20201;-64
2023/12/28 13:07:28;;;;;;;4.10;2.73;;;8.90;1.00;;;;;;8239200;28;20241;-64
2023/12/28 13:11:29;;;;;;;3.73;2.57;;;8.90;1.00;;;;;;8231379;28;20187;-65
2023/12/28 13:15:30;;;;;;;4.03;3.23;;;8.90;1.00;;;;;;8235767;28;20189;-63
2023/12/28 13:19:31;;;;;;;3.33;2.50;;;8.80;1.00;;;;;;8235276;28;20189;-65
2023/12/28 13:23:31;;;;;;;4.47;2.63;;;8.80;1.00;;;;;;8230215;28;20200;-65
2023/12/28 13:27:32;;;;;;;6.63;3.27;;;8.80;1.00;;;;;;8251644;28;20209;-65
2023/12/28 13:31:33;;;;;;;4.60;2.90;;;8.70;1.00;;;;;;8234058;28;20771;-64
2023/12/28 13:35:33;;;;;;;4.93;3.07;;;8.60;1.00;;;;;;8234178;28;20223;-63
2023/12/28 13:39:38;;;;;;;5.67;2.83;;;8.50;1.00;;;;;;8236577;28;20197;-65
2023/12/28 13:43:40;;;;;;;7.47;4.10;;;8.50;1.00;;;;;;8230515;28;20205;-62
2023/12/28 13:47:41;;;;;;;5.40;3.10;;;8.40;1.00;;;;;;8230324;28;20290;-64
2023/12/28 13:51:42;;;;;;;5.27;2.97;;;8.40;1.00;;;;;;8234779;28;20188;-63
2023/12/28 13:55:43;;;;;;;5.97;3.43;;;8.30;1.00;;;;;;8229027;28;20212;-64
2023/12/28 13:59:44;;;;;;;5.17;3.10;;;8.20;1.00;;;;;;8230031;28;20188;-64
2023/12/28 14:03:45;;;;;;;7.33;3.83;;;8.10;1.00;;;;;;8233815;28;20209;-64
2023/12/28 14:07:46;;;;;;;5.20;3.70;;;8.00;1.00;;;;;;8238606;28;20389;-63
2023/12/28 14:11:47;;;;;;;6.77;4.00;;;7.90;1.00;;;;;;8226316;28;20184;-63
2023/12/28 14:15:48;;;;;;;7.37;4.10;;;7.80;1.00;;;;;;8231443;28;20184;-62
2023/12/28 14:19:49;;;;;;;7.53;4.40;;;7.70;1.00;;;;;;8227262;28;20207;-63
2023/12/28 14:23:51;;;;;;;5.90;3.70;;;7.60;1.00;;;;;;8225603;28;20196;-63
2023/12/28 14:27:52;;;;;;;7.93;4.50;;;7.40;1.00;;;;;;8223928;28;20307;-63
2023/12/28 14:31:54;;;;;;;7.63;4.90;;;7.20;1.00;;;;;;8235272;28;20215;-64
2023/12/28 14:35:55;;;;;;;8.43;5.07;;;7.10;1.00;;;;;;8226847;28;20335;-64
2023/12/28 14:39:56;;;;;;;7.47;5.00;;;7.00;1.00;;;;;;8215084;28;20191;-63
2023/12/28 14:43:57;;;;;;;8.37;4.73;;;6.80;1.00;;;;;;8215279;28;20180;-64
2023/12/28 14:47:58;;;;;;;7.57;4.40;;;6.70;1.00;;;;;;8231205;28;20215;-64
2023/12/28 14:51:59;;;;;;;11.17;5.60;;;6.50;11.00;;;;;;8220581;28;20251;-63
2023/12/28 14:55:59;;;;;;;10.00;5.53;;;6.40;27.00;;;;;;8217156;28;20195;-63
2023/12/28 15:00:00;;;;;;;9.73;5.37;;;6.30;37.20;;;;;;8224232;28;20188;-64
2023/12/28 15:04:01;;;;;;;10.30;6.27;;;6.10;52.70;;;;;;8230363;28;20214;-64
2023/12/28 15:08:02;;;;;;;9.37;5.83;;;6.00;79.00;;;;;;8227611;28;20289;-63
2023/12/28 15:12:03;;;;;;;15.43;8.87;;;5.80;97.30;;;;;;8226788;28;20184;-64
2023/12/28 15:16:04;;;;;;;9.03;6.30;;;5.70;99.90;;;;;;8233674;28;20275;-63
2023/12/28 15:20:07;;;;;;;9.57;5.53;;;5.60;99.90;;;;;;8225388;28;20198;-64
2023/12/28 15:24:09;;;;;;;9.33;5.90;;;5.50;99.90;;;;;;8229383;28;22484;-65
2023/12/28 15:28:10;;;;;;;7.43;5.20;;;5.40;99.90;;;;;;8226777;28;20211;-62
2023/12/28 15:32:11;;;;;;;10.13;5.50;;;5.30;99.90;;;;;;8225554;28;20196;-63
2023/12/28 15:36:12;;;;;;;9.03;5.33;;;5.20;99.90;;;;;;8231808;28;20302;-64
2023/12/28 15:40:13;;;;;;;8.83;5.07;;;5.10;99.90;;;;;;8231250;28;20220;-64
2023/12/28 15:44:14;;;;;;;9.67;4.80;;;5.10;99.90;;;;;;8233852;28;20189;-63
2023/12/28 15:48:15;;;;;;;11.40;5.50;;;5.00;99.90;;;;;;8235221;28;20216;-64
2023/12/28 15:52:16;;;;;;;8.80;5.47;;;5.00;99.90;;;;;;8232763;28;20187;-64
2023/12/28 15:56:17;;;;;;;9.27;5.77;;;5.00;99.90;;;;;;8236512;28;20208;-64
2023/12/28 16:00:18;;;;;;;8.10;5.00;;;5.00;99.90;;;;;;8244267;28;20191;-64
2023/12/28 16:04:19;;;;;;;9.57;5.07;;;4.90;99.90;;;;;;8237296;28;20203;-63
2023/12/28 16:08:20;;;;;;;9.30;5.40;;;4.90;99.90;;;;;;8237519;28;20239;-64
2023/12/28 16:12:21;;;;;;;9.70;5.70;;;4.80;99.90;;;;;;8235419;28;20184;-64
2023/12/28 16:16:22;;;;;;;8.87;5.30;;;4.60;99.90;;;;;;8245654;28;20184;-63
2023/12/28 16:20:26;;;;;;;8.63;5.13;;;4.60;99.90;;;;;;8226134;28;20282;-65
2023/12/28 16:24:27;;;;;;;7.33;5.10;;;4.50;99.90;;;;;;8227910;28;20191;-63
2023/12/28 16:28:28;;;;;;;11.50;4.97;;;4.40;99.90;;;;;;8235498;28;20203;-64
2023/12/28 16:32:29;;;;;;;8.03;5.10;;;4.40;99.90;;;;;;8234171;28;20207;-63
2023/12/28 16:36:29;;;;;;;8.10;5.07;;;4.30;99.90;;;;;;8237902;28;20194;-63
2023/12/28 16:40:30;;;;;;;8.03;4.60;;;4.20;99.90;;;;;;8236055;28;20187;-64
2023/12/28 16:44:31;;;;;;;8.37;4.87;;;4.20;99.90;;;;;;8232530;28;20192;-63
2023/12/28 16:48:32;;;;;;;9.33;5.50;;;4.20;99.90;;;;;;8238654;28;20213;-63
2023/12/28 16:52:33;;;;;;;8.47;5.10;;;4.20;99.90;;;;;;8252788;28;20176;-63
2023/12/28 16:56:35;;;;;;;9.13;5.20;;;4.10;99.90;;;;;;8239401;28;20259;-64
2023/12/28 17:00:40;;;;;;;8.57;5.03;;;4.10;1.00;;;;;;8235596;28;20211;-63
2023/12/28 17:04:41;;;;;;;7.10;4.87;;;4.00;1.00;;;;;;8238982;28;20227;-63
2023/12/28 17:08:42;;;;;;;9.30;5.37;;;4.00;1.00;;;;;;8244696;28;20299;-64
2023/12/28 17:12:45;;;;;;;7.97;5.37;;;3.90;1.00;;;;;;8238166;28;20183;-64
2023/12/28 17:16:46;;;;;;;7.23;5.10;;;3.80;1.00;;;;;;8247419;28;20196;-63
2023/12/28 17:20:47;;;;;;;8.53;5.47;;;3.80;1.00;;;;;;8233479;28;20188;-64
2023/12/28 17:25:12;;;;;;;10.43;5.97;;;3.70;1.00;;;;;;8238590;28;20214;-63
2023/12/28 17:29:15;;;;;;;10.20;6.93;;;3.60;1.00;;;;;;8240658;28;20647;-64
2023/12/28 17:33:17;;;;;;;9.33;6.13;;;3.50;1.00;;;;;;8237408;28;20279;-64
2023/12/28 17:37:18;;;;;;;10.47;6.33;;;3.50;1.00;;;;;;8233656;28;20247;-63
2023/12/28 17:41:23;;;;;;;11.00;6.33;;;3.50;1.00;;;;;;8232270;28;20181;-64
2023/12/28 17:45:38;;;;;;;11.03;6.60;;;3.50;1.00;;;;;;8223562;28;20180;-63
2023/12/28 17:49:43;;;;;;;10.90;6.47;;;3.50;1.00;;;;;;8225272;28;20231;-64
2023/12/28 17:53:44;;;;;;;10.33;7.07;;;3.50;26.30;;;;;;8225481;28;20179;-64
2023/12/28 17:57:45;;;;;;;11.37;7.67;;;3.40;1.00;;;;;;8228490;28;20192;-63
2023/12/28 18:01:49;;;;;;;10.97;7.60;;;3.30;1.00;;;;;;8229195;28;20215;-63
2023/12/28 18:05:50;;;;;;;13.03;7.70;;;3.30;31.00;;;;;;8223204;28;20513;-64
2023/12/28 18:09:56;;;;;;;9.23;6.23;;;3.20;99.90;;;;;;8229366;28;21397;-64
2023/12/28 18:13:57;;;;;;;10.87;6.63;;;3.20;99.90;;;;;;8230117;28;20306;-62
2023/12/28 18:18:01;;;;;;;8.57;6.00;;;3.20;99.90;;;;;;8217339;28;20201;-62
2023/12/28 18:22:03;;;;;;;9.77;6.37;;;3.20;99.90;;;;;;8230164;28;20229;-63
2023/12/28 18:26:07;;;;;;;9.83;5.60;;;3.20;99.90;;;;;;8225890;28;20228;-63
2023/12/28 18:30:08;;;;;;;9.60;5.33;;;3.20;99.90;;;;;;8231772;28;20191;-63
2023/12/28 18:34:09;;;;;;;10.37;6.20;;;3.20;99.90;;;;;;8222677;28;20546;-64
2023/12/28 18:38:11;;;;;;;13.57;6.87;;;3.20;1.00;;;;;;8228487;28;20217;-64
2023/12/28 18:42:12;;;;;;;10.27;6.20;;;3.20;99.90;;;;;;8238843;28;20237;-64
2023/12/28 18:46:13;;;;;;;9.67;6.23;;;3.10;99.90;;;;;;8238675;28;20185;-64
2023/12/28 18:50:14;;;;;;;11.47;6.20;;;2.90;70.30;;;;;;8235076;28;20538;-64
2023/12/28 18:54:15;;;;;;;9.03;6.07;;;2.70;53.60;;;;;;8237048;28;20183;-63
2023/12/28 18:58:16;;;;;;;11.33;5.67;;;2.50;99.90;;;;;;8240736;28;20186;-63
2023/12/28 19:02:17;;;;;;;10.53;5.47;;;2.40;99.90;;;;;;8237995;28;20192;-64
2023/12/28 19:06:18;;;;;;;7.47;5.37;;;2.20;99.90;;;;;;8230726;28;20337;-64
2023/12/28 19:10:19;;;;;;;7.47;5.40;;;2.00;99.90;;;;;;8230499;28;20338;-64
2023/12/28 19:14:19;;;;;;;10.47;5.97;;;2.00;1.00;;;;;;8230980;28;20189;-63
2023/12/28 19:18:20;;;;;;;13.93;7.50;;;2.00;91.40;;;;;;8227117;28;20187;-63
2023/12/28 19:22:21;;;;;;;13.00;8.43;;;2.10;99.90;;;;;;8239265;28;20192;-64
2023/12/28 19:26:22;;;;;;;16.87;9.37;;;2.20;1.00;;;;;;8223146;28;20323;-63
2023/12/28 19:30:23;;;;;;;13.60;9.10;;;2.50;1.00;;;;;;8229860;28;20193;-64
2023/12/28 19:34:24;;;;;;;17.07;9.73;;;2.70;1.00;;;;;;8228829;28;20201;-63
2023/12/28 19:38:25;;;;;;;15.63;9.33;;;2.80;1.00;;;;;;8233620;28;21020;-64
2023/12/28 19:42:26;;;;;;;12.93;8.43;;;2.90;99.90;;;;;;8239855;28;20287;-63
2023/12/28 19:46:26;;;;;;;15.13;9.20;;;3.00;99.90;;;;;;8234440;28;20203;-64
2023/12/28 19:50:27;;;;;;;11.17;8.00;;;3.20;1.00;;;;;;8233419;28;20180;-63
2023/12/28 19:54:28;;;;;;;12.50;7.97;;;3.30;99.90;;;;;;8236993;28;20233;-63
2023/12/28 19:58:29;;;;;;;17.33;8.67;;;3.50;87.90;;;;;;8236768;28;20198;-63
2023/12/28 20:02:31;;;;;;;13.80;8.13;;;3.60;22.50;;;;;;8233451;28;20189;-64
2023/12/28 20:06:32;;;;;;;13.10;7.57;;;3.60;65.30;;;;;;8235210;28;20204;-63
2023/12/28 20:10:33;;;;;;;12.50;8.27;;;3.70;99.90;;;;;;8222617;28;20218;-64
2023/12/28 20:14:34;;;;;;;11.23;7.77;;;3.80;99.90;;;;;;8226499;28;20183;-64
2023/12/28 20:18:35;;;;;;;12.57;8.37;;;3.90;1.00;;;;;;8239195;28;20184;-63
2023/12/28 20:22:36;;;;;;;13.73;8.53;;;4.00;94.80;;;;;;8227770;28;20310;-63
2023/12/28 20:26:37;;;;;;;12.00;7.70;;;4.00;99.90;;;;;;8222226;28;20218;-64
2023/12/28 20:30:38;;;;;;;12.53;8.10;;;4.00;99.90;;;;;;8226434;28;20181;-64
2023/12/28 20:34:39;;;;;;;9.97;7.20;;;3.90;1.00;;;;;;8228041;28;20200;-63
2023/12/28 20:38:39;;;;;;;11.10;7.97;;;3.90;99.90;;;;;;8223828;28;20188;-64
2023/12/28 20:42:40;;;;;;;16.40;8.97;;;3.80;99.90;;;;;;8224541;28;20289;-64
2023/12/28 20:46:42;;;;;;;12.70;8.43;;;3.80;1.00;;;;;;8221720;28;20207;-63
2023/12/28 20:50:44;;;;;;;11.07;7.33;;;3.80;99.90;;;;;;8227945;28;20212;-63
2023/12/28 20:54:45;;;;;;;10.30;6.93;;;3.80;1.00;;;;;;8231476;28;20363;-63
2023/12/28 20:58:47;;;;;;;10.33;6.90;;;3.80;99.90;;;;;;8227834;28;20189;-64
2023/12/28 21:02:48;;;;;;;11.37;7.60;;;3.70;1.00;;;;;;8230185;28;20187;-63
2023/12/28 21:06:48;;;;;;;10.27;7.03;;;3.70;99.90;;;;;;8226984;28;20212;-64
2023/12/28 21:10:54;;;;;;;10.60;7.60;;;3.70;1.00;;;;;;8229588;28;20199;-63
2023/12/28 21:14:55;;;;;;;10.90;7.70;;;3.70;1.00;;;;;;8229413;28;20195;-63